sensor_id;sensor_type;location;lat;lon;timestamp;P1;durP1;ratioP1;P2;durP2;ratioP2
28587;SDS011;15787;49.662;10.162;2023-12-07T00:02:17;13.73;;;6.18;;
28587;SDS011;15787;49.662;10.162;2023-12-07T00:04:50;11.25;;;7.13;;
28587;SDS011;15787;49.662;10.162;2023-12-07T00:07:24;15.23;;;7.43;;
28587;SDS011;15787;49.662;10.162;2023-12-07T00:09:57;14.38;;;7.30;;
28587;SDS011;15787;49.662;10.162;2023-12-07T00:12:30;14.50;;;7.30;;
28587;SDS011;15787;49.662;10.162;2023-12-07T00:15:03;13.85;;;7.50;;
28587;SDS011;15787;49.662;10.162;2023-12-07T00:17:37;14.15;;;8.07;;
28587;SDS011;15787;49.662;10.162;2023-12-07T00:20:11;12.20;;;6.97;;
28587;SDS011;15787;49.662;10.162;2023-12-07T00:22:45;16.70;;;7.88;;
28587;SDS011;15787;49.662;10.162;2023-12-07T00:25:19;11.90;;;6.72;;
28587;SDS011;15787;49.662;10.162;2023-12-07T00:27:52;14.35;;;7.38;;
28587;SDS011;15787;49.662;10.162;2023-12-07T00:30:25;18.02;;;7.97;;
28587;SDS011;15787;49.662;10.162;2023-12-07T00:32:58;15.40;;;8.52;;
28587;SDS011;15787;49.662;10.162;2023-12-07T00:35:31;16.85;;;8.32;;
28587;SDS011;15787;49.662;10.162;2023-12-07T00:38:06;12.95;;;7.03;;
28587;SDS011;15787;49.662;10.162;2023-12-07T00:40:40;12.45;;;7.18;;
28587;SDS011;15787;49.662;10.162;2023-12-07T00:43:13;14.65;;;7.45;;
28587;SDS011;15787;49.662;10.162;2023-12-07T00:45:46;16.05;;;8.23;;
28587;SDS011;15787;49.662;10.162;2023-12-07T00:48:19;13.25;;;7.05;;
28587;SDS011;15787;49.662;10.162;2023-12-07T00:50:52;15.93;;;8.48;;
28587;SDS011;15787;49.662;10.162;2023-12-07T00:53:27;19.35;;;7.60;;
28587;SDS011;15787;49.662;10.162;2023-12-07T00:55:59;15.63;;;7.05;;
28587;SDS011;15787;49.662;10.162;2023-12-07T00:58:34;15.80;;;7.97;;
28587;SDS011;15787;49.662;10.162;2023-12-07T01:01:07;15.93;;;7.82;;
28587;SDS011;15787;49.662;10.162;2023-12-07T01:03:41;15.32;;;7.47;;
28587;SDS011;15787;49.662;10.162;2023-12-07T01:06:13;15.77;;;8.07;;
28587;SDS011;15787;49.662;10.162;2023-12-07T01:08:49;15.52;;;8.00;;
28587;SDS011;15787;49.662;10.162;2023-12-07T01:11:22;15.90;;;8.05;;
28587;SDS011;15787;49.662;10.162;2023-12-07T01:13:55;16.45;;;7.80;;
28587;SDS011;15787;49.662;10.162;2023-12-07T01:16:28;14.40;;;7.22;;
28587;SDS011;15787;49.662;10.162;2023-12-07T01:19:01;16.08;;;8.48;;
28587;SDS011;15787;49.662;10.162;2023-12-07T01:21:34;14.55;;;7.68;;
28587;SDS011;15787;49.662;10.162;2023-12-07T01:24:08;16.13;;;9.35;;
28587;SDS011;15787;49.662;10.162;2023-12-07T01:26:47;17.50;;;8.30;;
28587;SDS011;15787;49.662;10.162;2023-12-07T01:29:19;17.40;;;8.43;;
28587;SDS011;15787;49.662;10.162;2023-12-07T01:31:52;14.48;;;8.48;;
28587;SDS011;15787;49.662;10.162;2023-12-07T01:34:25;18.10;;;8.50;;
28587;SDS011;15787;49.662;10.162;2023-12-07T01:36:58;18.30;;;8.38;;
28587;SDS011;15787;49.662;10.162;2023-12-07T01:39:33;15.18;;;8.10;;
28587;SDS011;15787;49.662;10.162;2023-12-07T01:42:07;19.17;;;9.30;;
28587;SDS011;15787;49.662;10.162;2023-12-07T01:44:40;14.52;;;8.38;;
28587;SDS011;15787;49.662;10.162;2023-12-07T01:47:13;16.15;;;8.63;;
28587;SDS011;15787;49.662;10.162;2023-12-07T01:49:47;14.15;;;8.40;;
28587;SDS011;15787;49.662;10.162;2023-12-07T01:52:20;16.92;;;9.10;;
28587;SDS011;15787;49.662;10.162;2023-12-07T01:54:57;16.20;;;8.27;;
28587;SDS011;15787;49.662;10.162;2023-12-07T01:57:31;17.92;;;9.05;;
28587;SDS011;15787;49.662;10.162;2023-12-07T02:00:04;17.00;;;8.70;;
28587;SDS011;15787;49.662;10.162;2023-12-07T02:02:39;16.75;;;8.90;;
28587;SDS011;15787;49.662;10.162;2023-12-07T02:05:12;21.17;;;9.27;;
28587;SDS011;15787;49.662;10.162;2023-12-07T02:07:46;14.23;;;9.00;;
28587;SDS011;15787;49.662;10.162;2023-12-07T02:10:20;17.40;;;9.40;;
28587;SDS011;15787;49.662;10.162;2023-12-07T02:12:53;16.63;;;8.80;;
28587;SDS011;15787;49.662;10.162;2023-12-07T02:15:27;14.90;;;8.23;;
28587;SDS011;15787;49.662;10.162;2023-12-07T02:18:02;16.42;;;9.45;;
28587;SDS011;15787;49.662;10.162;2023-12-07T02:20:39;17.88;;;8.68;;
28587;SDS011;15787;49.662;10.162;2023-12-07T02:23:19;17.85;;;8.93;;
28587;SDS011;15787;49.662;10.162;2023-12-07T02:26:13;17.30;;;8.95;;
28587;SDS011;15787;49.662;10.162;2023-12-07T02:28:52;15.32;;;9.20;;
28587;SDS011;15787;49.662;10.162;2023-12-07T02:31:25;19.30;;;9.40;;
28587;SDS011;15787;49.662;10.162;2023-12-07T02:33:58;17.55;;;8.80;;
28587;SDS011;15787;49.662;10.162;2023-12-07T02:36:32;22.65;;;9.82;;
28587;SDS011;15787;49.662;10.162;2023-12-07T02:39:07;16.83;;;8.77;;
28587;SDS011;15787;49.662;10.162;2023-12-07T02:41:43;14.85;;;8.48;;
28587;SDS011;15787;49.662;10.162;2023-12-07T02:44:20;17.98;;;9.30;;
28587;SDS011;15787;49.662;10.162;2023-12-07T02:46:53;16.50;;;9.23;;
28587;SDS011;15787;49.662;10.162;2023-12-07T02:49:26;19.17;;;8.88;;
28587;SDS011;15787;49.662;10.162;2023-12-07T02:51:59;17.13;;;8.75;;
28587;SDS011;15787;49.662;10.162;2023-12-07T02:54:32;20.40;;;10.45;;
28587;SDS011;15787;49.662;10.162;2023-12-07T02:57:05;19.05;;;9.48;;
28587;SDS011;15787;49.662;10.162;2023-12-07T02:59:39;18.90;;;9.25;;
28587;SDS011;15787;49.662;10.162;2023-12-07T03:02:12;17.90;;;9.55;;
28587;SDS011;15787;49.662;10.162;2023-12-07T03:04:45;18.85;;;9.73;;
28587;SDS011;15787;49.662;10.162;2023-12-07T03:07:18;17.40;;;9.32;;
28587;SDS011;15787;49.662;10.162;2023-12-07T03:09:51;18.77;;;9.48;;
28587;SDS011;15787;49.662;10.162;2023-12-07T03:12:24;20.08;;;9.32;;
28587;SDS011;15787;49.662;10.162;2023-12-07T03:14:58;21.38;;;9.60;;
28587;SDS011;15787;49.662;10.162;2023-12-07T03:17:31;17.95;;;9.57;;
28587;SDS011;15787;49.662;10.162;2023-12-07T03:20:05;17.60;;;9.25;;
28587;SDS011;15787;49.662;10.162;2023-12-07T03:22:41;23.02;;;9.30;;
28587;SDS011;15787;49.662;10.162;2023-12-07T03:25:14;18.13;;;9.55;;
28587;SDS011;15787;49.662;10.162;2023-12-07T03:27:47;16.83;;;9.00;;
28587;SDS011;15787;49.662;10.162;2023-12-07T03:30:21;13.80;;;8.43;;
28587;SDS011;15787;49.662;10.162;2023-12-07T03:32:54;16.60;;;9.57;;
28587;SDS011;15787;49.662;10.162;2023-12-07T03:35:27;17.02;;;9.02;;
28587;SDS011;15787;49.662;10.162;2023-12-07T03:38:00;18.70;;;9.35;;
28587;SDS011;15787;49.662;10.162;2023-12-07T03:40:33;21.15;;;10.57;;
28587;SDS011;15787;49.662;10.162;2023-12-07T03:43:06;26.80;;;10.43;;
28587;SDS011;15787;49.662;10.162;2023-12-07T03:45:41;19.50;;;10.00;;
28587;SDS011;15787;49.662;10.162;2023-12-07T03:48:14;24.98;;;11.70;;
28587;SDS011;15787;49.662;10.162;2023-12-07T03:50:47;21.67;;;11.23;;
28587;SDS011;15787;49.662;10.162;2023-12-07T03:53:20;22.55;;;12.00;;
28587;SDS011;15787;49.662;10.162;2023-12-07T03:55:53;22.88;;;11.50;;
28587;SDS011;15787;49.662;10.162;2023-12-07T03:58:26;23.08;;;11.20;;
28587;SDS011;15787;49.662;10.162;2023-12-07T04:01:01;20.13;;;11.23;;
28587;SDS011;15787;49.662;10.162;2023-12-07T04:03:34;22.60;;;11.88;;
28587;SDS011;15787;49.662;10.162;2023-12-07T04:06:07;23.88;;;11.30;;
28587;SDS011;15787;49.662;10.162;2023-12-07T04:08:40;24.30;;;10.95;;
28587;SDS011;15787;49.662;10.162;2023-12-07T04:11:13;21.40;;;10.38;;
28587;SDS011;15787;49.662;10.162;2023-12-07T04:13:47;23.13;;;11.55;;
28587;SDS011;15787;49.662;10.162;2023-12-07T04:16:21;25.95;;;13.05;;
28587;SDS011;15787;49.662;10.162;2023-12-07T04:18:55;28.10;;;12.68;;
28587;SDS011;15787;49.662;10.162;2023-12-07T04:21:28;22.00;;;11.60;;
28587;SDS011;15787;49.662;10.162;2023-12-07T04:24:00;24.27;;;11.52;;
28587;SDS011;15787;49.662;10.162;2023-12-07T04:26:33;22.88;;;11.57;;
28587;SDS011;15787;49.662;10.162;2023-12-07T04:29:06;21.42;;;11.05;;
28587;SDS011;15787;49.662;10.162;2023-12-07T04:31:41;21.40;;;10.02;;
28587;SDS011;15787;49.662;10.162;2023-12-07T04:34:13;21.15;;;10.18;;
28587;SDS011;15787;49.662;10.162;2023-12-07T04:36:46;23.23;;;11.05;;
28587;SDS011;15787;49.662;10.162;2023-12-07T04:39:19;21.48;;;10.18;;
28587;SDS011;15787;49.662;10.162;2023-12-07T04:41:52;19.85;;;10.02;;
28587;SDS011;15787;49.662;10.162;2023-12-07T04:44:25;18.83;;;10.18;;
28587;SDS011;15787;49.662;10.162;2023-12-07T04:47:07;19.55;;;10.70;;
28587;SDS011;15787;49.662;10.162;2023-12-07T04:49:44;21.33;;;10.55;;
28587;SDS011;15787;49.662;10.162;2023-12-07T04:52:24;22.83;;;11.38;;
28587;SDS011;15787;49.662;10.162;2023-12-07T04:54:57;24.20;;;11.63;;
28587;SDS011;15787;49.662;10.162;2023-12-07T04:57:36;22.60;;;11.30;;
28587;SDS011;15787;49.662;10.162;2023-12-07T05:00:10;22.63;;;11.32;;
28587;SDS011;15787;49.662;10.162;2023-12-07T05:02:49;22.80;;;10.50;;
28587;SDS011;15787;49.662;10.162;2023-12-07T05:05:26;22.35;;;10.93;;
28587;SDS011;15787;49.662;10.162;2023-12-07T05:07:59;23.70;;;11.38;;
28587;SDS011;15787;49.662;10.162;2023-12-07T05:10:32;24.00;;;12.02;;
28587;SDS011;15787;49.662;10.162;2023-12-07T05:13:06;20.92;;;11.32;;
28587;SDS011;15787;49.662;10.162;2023-12-07T05:15:39;19.80;;;10.95;;
28587;SDS011;15787;49.662;10.162;2023-12-07T05:18:13;24.17;;;12.98;;
28587;SDS011;15787;49.662;10.162;2023-12-07T05:20:47;23.17;;;11.90;;
28587;SDS011;15787;49.662;10.162;2023-12-07T05:23:20;25.92;;;11.98;;
28587;SDS011;15787;49.662;10.162;2023-12-07T05:25:55;25.73;;;13.02;;
28587;SDS011;15787;49.662;10.162;2023-12-07T05:28:28;25.83;;;12.40;;
28587;SDS011;15787;49.662;10.162;2023-12-07T05:31:01;20.60;;;11.05;;
28587;SDS011;15787;49.662;10.162;2023-12-07T05:33:36;23.75;;;11.98;;
28587;SDS011;15787;49.662;10.162;2023-12-07T05:36:09;22.85;;;12.23;;
28587;SDS011;15787;49.662;10.162;2023-12-07T05:38:43;22.90;;;11.90;;
28587;SDS011;15787;49.662;10.162;2023-12-07T05:41:16;27.40;;;13.88;;
28587;SDS011;15787;49.662;10.162;2023-12-07T05:43:49;24.27;;;12.60;;
28587;SDS011;15787;49.662;10.162;2023-12-07T05:46:23;28.35;;;13.18;;
28587;SDS011;15787;49.662;10.162;2023-12-07T05:48:57;28.33;;;12.63;;
28587;SDS011;15787;49.662;10.162;2023-12-07T05:51:30;28.75;;;15.32;;
28587;SDS011;15787;49.662;10.162;2023-12-07T05:54:03;29.85;;;15.27;;
28587;SDS011;15787;49.662;10.162;2023-12-07T05:56:37;31.55;;;15.13;;
28587;SDS011;15787;49.662;10.162;2023-12-07T05:59:10;30.98;;;15.35;;
28587;SDS011;15787;49.662;10.162;2023-12-07T06:01:43;36.83;;;17.55;;
28587;SDS011;15787;49.662;10.162;2023-12-07T06:04:17;39.92;;;16.75;;
28587;SDS011;15787;49.662;10.162;2023-12-07T06:06:51;37.97;;;16.17;;
28587;SDS011;15787;49.662;10.162;2023-12-07T06:09:24;40.42;;;15.48;;
28587;SDS011;15787;49.662;10.162;2023-12-07T06:11:57;37.20;;;16.63;;
28587;SDS011;15787;49.662;10.162;2023-12-07T06:14:29;91.45;;;17.75;;
28587;SDS011;15787;49.662;10.162;2023-12-07T06:17:03;82.38;;;17.08;;
28587;SDS011;15787;49.662;10.162;2023-12-07T06:19:38;76.57;;;15.45;;
28587;SDS011;15787;49.662;10.162;2023-12-07T06:22:11;114.30;;;15.82;;
28587;SDS011;15787;49.662;10.162;2023-12-07T06:24:45;119.30;;;15.63;;
28587;SDS011;15787;49.662;10.162;2023-12-07T06:27:18;63.92;;;14.18;;
28587;SDS011;15787;49.662;10.162;2023-12-07T06:29:51;91.10;;;18.50;;
28587;SDS011;15787;49.662;10.162;2023-12-07T06:32:24;82.35;;;16.80;;
28587;SDS011;15787;49.662;10.162;2023-12-07T06:34:59;92.82;;;18.58;;
28587;SDS011;15787;49.662;10.162;2023-12-07T06:37:32;87.68;;;16.25;;
28587;SDS011;15787;49.662;10.162;2023-12-07T06:40:06;79.55;;;15.35;;
28587;SDS011;15787;49.662;10.162;2023-12-07T06:42:40;144.35;;;20.13;;
28587;SDS011;15787;49.662;10.162;2023-12-07T06:45:13;115.72;;;18.27;;
28587;SDS011;15787;49.662;10.162;2023-12-07T06:47:46;88.60;;;18.42;;
28587;SDS011;15787;49.662;10.162;2023-12-07T06:50:21;80.75;;;18.27;;
28587;SDS011;15787;49.662;10.162;2023-12-07T06:52:54;114.30;;;19.77;;
28587;SDS011;15787;49.662;10.162;2023-12-07T06:55:27;192.93;;;21.40;;
28587;SDS011;15787;49.662;10.162;2023-12-07T06:58:00;133.98;;;20.50;;
28587;SDS011;15787;49.662;10.162;2023-12-07T07:00:33;129.77;;;19.38;;
28587;SDS011;15787;49.662;10.162;2023-12-07T07:03:07;104.50;;;18.65;;
28587;SDS011;15787;49.662;10.162;2023-12-07T07:05:41;58.85;;;16.20;;
28587;SDS011;15787;49.662;10.162;2023-12-07T07:08:15;40.28;;;16.85;;
28587;SDS011;15787;49.662;10.162;2023-12-07T07:10:49;52.33;;;19.25;;
28587;SDS011;15787;49.662;10.162;2023-12-07T07:13:22;81.32;;;19.88;;
28587;SDS011;15787;49.662;10.162;2023-12-07T07:15:55;62.85;;;19.55;;
28587;SDS011;15787;49.662;10.162;2023-12-07T07:18:28;71.90;;;19.05;;
28587;SDS011;15787;49.662;10.162;2023-12-07T07:21:02;44.08;;;17.45;;
28587;SDS011;15787;49.662;10.162;2023-12-07T07:23:36;43.50;;;17.45;;
28587;SDS011;15787;49.662;10.162;2023-12-07T07:26:16;61.50;;;18.42;;
28587;SDS011;15787;49.662;10.162;2023-12-07T07:28:49;43.42;;;16.83;;
28587;SDS011;15787;49.662;10.162;2023-12-07T07:31:22;84.45;;;19.75;;
28587;SDS011;15787;49.662;10.162;2023-12-07T07:33:55;119.70;;;20.90;;
28587;SDS011;15787;49.662;10.162;2023-12-07T07:36:33;118.43;;;19.65;;
28587;SDS011;15787;49.662;10.162;2023-12-07T07:39:06;83.47;;;17.17;;
28587;SDS011;15787;49.662;10.162;2023-12-07T07:41:40;126.15;;;19.27;;
28587;SDS011;15787;49.662;10.162;2023-12-07T07:44:13;144.02;;;21.60;;
28587;SDS011;15787;49.662;10.162;2023-12-07T07:46:46;87.65;;;16.63;;
28587;SDS011;15787;49.662;10.162;2023-12-07T07:49:19;110.88;;;18.58;;
28587;SDS011;15787;49.662;10.162;2023-12-07T07:51:53;65.85;;;15.85;;
28587;SDS011;15787;49.662;10.162;2023-12-07T07:54:26;86.75;;;17.85;;
28587;SDS011;15787;49.662;10.162;2023-12-07T07:56:59;193.02;;;23.65;;
28587;SDS011;15787;49.662;10.162;2023-12-07T07:59:32;92.72;;;19.50;;
28587;SDS011;15787;49.662;10.162;2023-12-07T08:02:05;99.03;;;18.55;;
28587;SDS011;15787;49.662;10.162;2023-12-07T08:04:38;35.13;;;15.75;;
28587;SDS011;15787;49.662;10.162;2023-12-07T08:07:12;85.80;;;18.00;;
28587;SDS011;15787;49.662;10.162;2023-12-07T08:09:45;52.72;;;18.00;;
28587;SDS011;15787;49.662;10.162;2023-12-07T08:12:18;69.50;;;18.00;;
28587;SDS011;15787;49.662;10.162;2023-12-07T08:14:54;54.88;;;15.82;;
28587;SDS011;15787;49.662;10.162;2023-12-07T08:17:28;59.45;;;16.33;;
28587;SDS011;15787;49.662;10.162;2023-12-07T08:20:01;82.68;;;17.92;;
28587;SDS011;15787;49.662;10.162;2023-12-07T08:22:36;82.97;;;16.17;;
28587;SDS011;15787;49.662;10.162;2023-12-07T08:25:10;42.22;;;14.48;;
28587;SDS011;15787;49.662;10.162;2023-12-07T08:27:43;78.20;;;17.98;;
28587;SDS011;15787;49.662;10.162;2023-12-07T08:30:17;158.98;;;21.48;;
28587;SDS011;15787;49.662;10.162;2023-12-07T08:32:51;85.13;;;17.45;;
28587;SDS011;15787;49.662;10.162;2023-12-07T08:35:24;58.00;;;16.02;;
28587;SDS011;15787;49.662;10.162;2023-12-07T08:37:58;36.35;;;14.20;;
28587;SDS011;15787;49.662;10.162;2023-12-07T08:40:31;42.63;;;13.95;;
28587;SDS011;15787;49.662;10.162;2023-12-07T08:43:04;36.88;;;15.88;;
28587;SDS011;15787;49.662;10.162;2023-12-07T08:45:37;38.13;;;15.85;;
28587;SDS011;15787;49.662;10.162;2023-12-07T08:48:10;38.63;;;14.90;;
28587;SDS011;15787;49.662;10.162;2023-12-07T08:50:43;35.40;;;15.77;;
28587;SDS011;15787;49.662;10.162;2023-12-07T08:53:17;39.33;;;15.32;;
28587;SDS011;15787;49.662;10.162;2023-12-07T08:55:51;37.78;;;14.90;;
28587;SDS011;15787;49.662;10.162;2023-12-07T08:58:24;50.88;;;14.43;;
28587;SDS011;15787;49.662;10.162;2023-12-07T09:00:57;36.80;;;15.60;;
28587;SDS011;15787;49.662;10.162;2023-12-07T09:03:30;37.13;;;15.60;;
28587;SDS011;15787;49.662;10.162;2023-12-07T09:06:04;31.85;;;13.13;;
28587;SDS011;15787;49.662;10.162;2023-12-07T09:08:39;39.47;;;14.45;;
28587;SDS011;15787;49.662;10.162;2023-12-07T09:11:13;35.47;;;12.90;;
28587;SDS011;15787;49.662;10.162;2023-12-07T09:13:46;35.10;;;13.50;;
28587;SDS011;15787;49.662;10.162;2023-12-07T09:16:19;34.97;;;14.85;;
28587;SDS011;15787;49.662;10.162;2023-12-07T09:18:52;34.22;;;14.82;;
28587;SDS011;15787;49.662;10.162;2023-12-07T09:21:26;35.15;;;14.75;;
28587;SDS011;15787;49.662;10.162;2023-12-07T09:24:00;35.58;;;14.60;;
28587;SDS011;15787;49.662;10.162;2023-12-07T09:26:33;40.95;;;16.13;;
28587;SDS011;15787;49.662;10.162;2023-12-07T09:29:06;36.92;;;15.82;;
28587;SDS011;15787;49.662;10.162;2023-12-07T09:31:40;33.63;;;15.00;;
28587;SDS011;15787;49.662;10.162;2023-12-07T09:34:13;38.97;;;17.42;;
28587;SDS011;15787;49.662;10.162;2023-12-07T09:36:49;38.03;;;17.25;;
28587;SDS011;15787;49.662;10.162;2023-12-07T09:39:38;35.10;;;16.13;;
28587;SDS011;15787;49.662;10.162;2023-12-07T09:42:11;42.20;;;18.55;;
28587;SDS011;15787;49.662;10.162;2023-12-07T09:44:45;45.75;;;19.92;;
28587;SDS011;15787;49.662;10.162;2023-12-07T09:47:18;46.15;;;18.60;;
28587;SDS011;15787;49.662;10.162;2023-12-07T09:50:01;46.78;;;18.52;;
28587;SDS011;15787;49.662;10.162;2023-12-07T09:52:35;42.80;;;18.95;;
28587;SDS011;15787;49.662;10.162;2023-12-07T09:55:10;44.55;;;18.92;;
28587;SDS011;15787;49.662;10.162;2023-12-07T09:57:43;40.60;;;18.13;;
28587;SDS011;15787;49.662;10.162;2023-12-07T10:00:16;37.22;;;16.70;;
28587;SDS011;15787;49.662;10.162;2023-12-07T10:02:50;38.30;;;16.52;;
28587;SDS011;15787;49.662;10.162;2023-12-07T10:05:26;44.15;;;19.50;;
28587;SDS011;15787;49.662;10.162;2023-12-07T10:07:59;44.90;;;17.40;;
28587;SDS011;15787;49.662;10.162;2023-12-07T10:10:33;40.92;;;18.35;;
28587;SDS011;15787;49.662;10.162;2023-12-07T10:13:08;43.10;;;18.15;;
28587;SDS011;15787;49.662;10.162;2023-12-07T10:15:45;49.03;;;19.42;;
28587;SDS011;15787;49.662;10.162;2023-12-07T10:18:19;38.40;;;16.65;;
28587;SDS011;15787;49.662;10.162;2023-12-07T10:20:56;43.97;;;18.88;;
28587;SDS011;15787;49.662;10.162;2023-12-07T10:23:29;44.10;;;18.23;;
28587;SDS011;15787;49.662;10.162;2023-12-07T10:26:06;44.05;;;19.00;;
28587;SDS011;15787;49.662;10.162;2023-12-07T10:28:39;44.05;;;17.70;;
28587;SDS011;15787;49.662;10.162;2023-12-07T10:31:12;49.53;;;18.67;;
28587;SDS011;15787;49.662;10.162;2023-12-07T10:33:50;48.05;;;17.63;;
28587;SDS011;15787;49.662;10.162;2023-12-07T10:36:23;45.55;;;18.33;;
28587;SDS011;15787;49.662;10.162;2023-12-07T10:38:56;46.90;;;19.27;;
28587;SDS011;15787;49.662;10.162;2023-12-07T10:41:31;46.70;;;19.23;;
28587;SDS011;15787;49.662;10.162;2023-12-07T10:44:06;49.13;;;19.73;;
28587;SDS011;15787;49.662;10.162;2023-12-07T10:46:41;47.35;;;18.20;;
28587;SDS011;15787;49.662;10.162;2023-12-07T10:49:15;47.00;;;17.63;;
28587;SDS011;15787;49.662;10.162;2023-12-07T10:52:03;46.67;;;16.73;;
28587;SDS011;15787;49.662;10.162;2023-12-07T10:54:40;49.95;;;17.52;;
28587;SDS011;15787;49.662;10.162;2023-12-07T10:57:21;43.50;;;16.85;;
28587;SDS011;15787;49.662;10.162;2023-12-07T10:59:55;38.83;;;15.63;;
28587;SDS011;15787;49.662;10.162;2023-12-07T11:02:30;46.53;;;17.42;;
28587;SDS011;15787;49.662;10.162;2023-12-07T11:05:06;41.83;;;16.65;;
28587;SDS011;15787;49.662;10.162;2023-12-07T11:07:46;43.40;;;18.15;;
28587;SDS011;15787;49.662;10.162;2023-12-07T11:10:25;39.20;;;17.42;;
28587;SDS011;15787;49.662;10.162;2023-12-07T11:13:12;42.13;;;18.85;;
28587;SDS011;15787;49.662;10.162;2023-12-07T11:15:51;44.88;;;17.90;;
28587;SDS011;15787;49.662;10.162;2023-12-07T11:18:24;40.17;;;17.85;;
28587;SDS011;15787;49.662;10.162;2023-12-07T11:20:58;37.38;;;17.38;;
28587;SDS011;15787;49.662;10.162;2023-12-07T11:23:32;36.80;;;16.73;;
28587;SDS011;15787;49.662;10.162;2023-12-07T11:26:05;41.90;;;18.58;;
28587;SDS011;15787;49.662;10.162;2023-12-07T11:28:39;33.13;;;15.40;;
28587;SDS011;15787;49.662;10.162;2023-12-07T11:31:12;34.83;;;16.10;;
28587;SDS011;15787;49.662;10.162;2023-12-07T11:33:46;34.75;;;16.20;;
28587;SDS011;15787;49.662;10.162;2023-12-07T11:36:20;33.03;;;15.32;;
28587;SDS011;15787;49.662;10.162;2023-12-07T11:42:01;37.55;;;17.55;;
28587;SDS011;15787;49.662;10.162;2023-12-07T11:44:41;34.83;;;15.63;;
28587;SDS011;15787;49.662;10.162;2023-12-07T11:47:16;34.35;;;17.20;;
28587;SDS011;15787;49.662;10.162;2023-12-07T11:49:51;40.90;;;17.90;;
28587;SDS011;15787;49.662;10.162;2023-12-07T11:52:27;35.53;;;16.65;;
28587;SDS011;15787;49.662;10.162;2023-12-07T11:55:19;41.53;;;17.90;;
28587;SDS011;15787;49.662;10.162;2023-12-07T11:57:55;39.80;;;16.77;;
28587;SDS011;15787;49.662;10.162;2023-12-07T12:00:31;40.47;;;17.60;;
28587;SDS011;15787;49.662;10.162;2023-12-07T12:03:06;38.15;;;17.60;;
28587;SDS011;15787;49.662;10.162;2023-12-07T12:05:39;33.50;;;16.45;;
28587;SDS011;15787;49.662;10.162;2023-12-07T12:08:13;40.20;;;18.65;;
28587;SDS011;15787;49.662;10.162;2023-12-07T12:10:47;41.65;;;18.90;;
28587;SDS011;15787;49.662;10.162;2023-12-07T12:13:27;38.10;;;16.45;;
28587;SDS011;15787;49.662;10.162;2023-12-07T12:16:04;44.35;;;18.75;;
28587;SDS011;15787;49.662;10.162;2023-12-07T12:18:40;38.22;;;17.20;;
28587;SDS011;15787;49.662;10.162;2023-12-07T12:21:13;41.70;;;17.45;;
28587;SDS011;15787;49.662;10.162;2023-12-07T12:23:47;41.03;;;17.65;;
28587;SDS011;15787;49.662;10.162;2023-12-07T12:26:20;36.28;;;16.48;;
28587;SDS011;15787;49.662;10.162;2023-12-07T12:28:53;35.80;;;17.17;;
28587;SDS011;15787;49.662;10.162;2023-12-07T12:31:28;37.75;;;16.02;;
28587;SDS011;15787;49.662;10.162;2023-12-07T12:34:02;40.30;;;17.35;;
28587;SDS011;15787;49.662;10.162;2023-12-07T12:36:40;38.70;;;17.33;;
28587;SDS011;15787;49.662;10.162;2023-12-07T12:39:13;37.63;;;16.90;;
28587;SDS011;15787;49.662;10.162;2023-12-07T12:42:00;35.67;;;17.55;;
28587;SDS011;15787;49.662;10.162;2023-12-07T12:44:35;39.10;;;16.92;;
28587;SDS011;15787;49.662;10.162;2023-12-07T12:47:11;36.67;;;17.23;;
28587;SDS011;15787;49.662;10.162;2023-12-07T12:49:44;34.33;;;16.48;;
28587;SDS011;15787;49.662;10.162;2023-12-07T12:52:18;37.67;;;17.25;;
28587;SDS011;15787;49.662;10.162;2023-12-07T12:54:51;41.78;;;17.13;;
28587;SDS011;15787;49.662;10.162;2023-12-07T12:57:24;37.67;;;17.40;;
28587;SDS011;15787;49.662;10.162;2023-12-07T12:59:58;37.72;;;18.00;;
28587;SDS011;15787;49.662;10.162;2023-12-07T13:02:35;33.03;;;16.60;;
28587;SDS011;15787;49.662;10.162;2023-12-07T13:05:08;34.55;;;16.95;;
28587;SDS011;15787;49.662;10.162;2023-12-07T13:07:43;40.53;;;16.92;;
28587;SDS011;15787;49.662;10.162;2023-12-07T13:10:16;41.08;;;18.30;;
28587;SDS011;15787;49.662;10.162;2023-12-07T13:12:49;33.78;;;17.13;;
28587;SDS011;15787;49.662;10.162;2023-12-07T13:15:22;38.47;;;17.42;;
28587;SDS011;15787;49.662;10.162;2023-12-07T13:17:58;32.97;;;16.73;;
28587;SDS011;15787;49.662;10.162;2023-12-07T13:20:33;42.42;;;17.75;;
28587;SDS011;15787;49.662;10.162;2023-12-07T13:23:10;41.00;;;16.25;;
28587;SDS011;15787;49.662;10.162;2023-12-07T13:25:43;37.63;;;17.52;;
28587;SDS011;15787;49.662;10.162;2023-12-07T13:28:16;32.10;;;16.13;;
28587;SDS011;15787;49.662;10.162;2023-12-07T13:30:49;33.80;;;16.73;;
28587;SDS011;15787;49.662;10.162;2023-12-07T13:33:24;37.20;;;18.42;;
28587;SDS011;15787;49.662;10.162;2023-12-07T13:36:02;35.53;;;17.50;;
28587;SDS011;15787;49.662;10.162;2023-12-07T13:38:39;32.33;;;15.95;;
28587;SDS011;15787;49.662;10.162;2023-12-07T13:41:12;34.05;;;15.80;;
28587;SDS011;15787;49.662;10.162;2023-12-07T13:43:45;33.78;;;17.35;;
28587;SDS011;15787;49.662;10.162;2023-12-07T13:46:20;34.00;;;16.27;;
28587;SDS011;15787;49.662;10.162;2023-12-07T13:48:56;31.90;;;16.88;;
28587;SDS011;15787;49.662;10.162;2023-12-07T13:51:29;30.05;;;15.63;;
28587;SDS011;15787;49.662;10.162;2023-12-07T13:54:03;35.35;;;17.08;;
28587;SDS011;15787;49.662;10.162;2023-12-07T13:56:36;33.65;;;16.98;;
28587;SDS011;15787;49.662;10.162;2023-12-07T13:59:09;40.47;;;17.67;;
28587;SDS011;15787;49.662;10.162;2023-12-07T14:01:43;31.55;;;15.55;;
28587;SDS011;15787;49.662;10.162;2023-12-07T14:04:18;37.70;;;16.65;;
28587;SDS011;15787;49.662;10.162;2023-12-07T14:07:06;34.53;;;17.10;;
28587;SDS011;15787;49.662;10.162;2023-12-07T14:09:41;39.38;;;16.25;;
28587;SDS011;15787;49.662;10.162;2023-12-07T14:12:28;36.33;;;16.88;;
28587;SDS011;15787;49.662;10.162;2023-12-07T14:15:01;36.15;;;16.05;;
28587;SDS011;15787;49.662;10.162;2023-12-07T14:17:34;33.72;;;16.20;;
28587;SDS011;15787;49.662;10.162;2023-12-07T14:20:22;30.80;;;15.30;;
28587;SDS011;15787;49.662;10.162;2023-12-07T14:23:16;31.92;;;16.45;;
28587;SDS011;15787;49.662;10.162;2023-12-07T14:25:50;34.45;;;16.05;;
28587;SDS011;15787;49.662;10.162;2023-12-07T14:28:23;33.08;;;16.25;;
28587;SDS011;15787;49.662;10.162;2023-12-07T14:31:03;36.00;;;15.13;;
28587;SDS011;15787;49.662;10.162;2023-12-07T14:33:39;35.28;;;16.90;;
28587;SDS011;15787;49.662;10.162;2023-12-07T14:36:17;31.05;;;15.30;;
28587;SDS011;15787;49.662;10.162;2023-12-07T14:38:52;32.70;;;15.73;;
28587;SDS011;15787;49.662;10.162;2023-12-07T14:41:32;34.13;;;15.98;;
28587;SDS011;15787;49.662;10.162;2023-12-07T14:44:15;42.60;;;18.25;;
28587;SDS011;15787;49.662;10.162;2023-12-07T14:47:00;34.33;;;15.68;;
28587;SDS011;15787;49.662;10.162;2023-12-07T14:49:38;38.17;;;16.52;;
28587;SDS011;15787;49.662;10.162;2023-12-07T14:52:13;37.80;;;16.35;;
28587;SDS011;15787;49.662;10.162;2023-12-07T14:54:52;38.20;;;16.40;;
28587;SDS011;15787;49.662;10.162;2023-12-07T14:57:28;33.67;;;16.63;;